Meath Environmental Platform

Observations for Trim Market St

Time AQI Temp °C Hum % Pres Pa CO μg/m³ H₂S μg/m³ NO μg/m³ NO₂ μg/m³ O₃ μg/m³ SO₂ μg/m³ PM1 μg/m³ PM2.5 μg/m³ PM10 μg/m³
Thursday 16 July 2026
15:33 1 40.2 24 67,059 0 0 0 9.53 25.99 1.67 7.84 13.51 18.34
15:32 1 40.3 24 67,061 0 0 0 0 38.41 3.72 6.41 12.96 16.54
15:31 1 40.3 24 67,063 0 0 0 0 35.69 4.28 7.84 14.05 18.33
15:30 1 40.3 24 67,041 0 0 0 0 38.98 3.9 6.41 14.03 19.21
15:29 1 40.4 24 67,035 0 0 0 0 40.19 4.41 6.41 13.47 18.3
15:28 1 40.4 25 67,055 0 0 0 2.98 41.11 3.15 7.84 14.55 19.18
15:26 1 40.3 24 67,049 0 0 0 0 40.82 3.83 9.26 14.57 20.09
15:25 1 40.3 24 67,041 0 0 0 0 47.01 4.01 8.55 15.12 20.09
15:24 1 40.3 24 67,033 0 0 0 1.53 40.54 3.46 7.13 12.36 15.6
15:23 1 40.3 24 67,021 0 0 0 0 40.01 3.94 7.13 12.38 15.61
15:22 1 40.3 24 67,033 0 0 0 6.94 35.93 2.22 7.84 14.58 20.1
15:20 1 40.3 24 67,049 0 0 0 0 37.38 3.18 6.41 11.28 15.62
15:19 1 40.3 24 67,047 0 0 0 0 37.63 3.61 9.26 14.02 19.2
15:18 1 40.2 25 67,047 0 0 0 0 30.67 3.5 7.84 14.55 20.08
15:17 1 40.2 25 67,043 0 0 0 1.04 31.94 2.51 7.84 15.1 22.76
15:15 1 40.2 25 67,065 0 0 0 1.23 34.77 2.46 8.55 13.45 17.38
15:13 1 40.1 25 66,999 0 0 0 3.05 52.58 2.66 7.13 11.79 14.69
15:12 1 40.1 25 67,007 0 0 0 0 15.82 3.95 8.55 14 18.28
15:11 1 40.1 25 66,994 0 0 0 1.04 48.06 3.17 8.55 13.99 19.16
15:10 1 40 25 67,003 0 0 0 0 23.95 3.1 9.26 15.09 21.85